createdAt,value
2023-09-11T00:04:58.389Z,18.69
2023-09-11T00:10:00.522Z,18.55
2023-09-11T00:15:02.820Z,18.57
2023-09-11T00:20:11.613Z,18.57
2023-09-11T00:25:13.866Z,18.52
2023-09-11T00:30:15.956Z,18.35
2023-09-11T00:35:18.152Z,18.23
2023-09-11T00:40:20.325Z,18.17
2023-09-11T00:45:22.587Z,18.25
2023-09-11T00:50:25.860Z,18.19
2023-09-11T00:55:28.816Z,18.20
2023-09-11T01:00:31.478Z,18.15
2023-09-11T01:05:37.099Z,18.05
2023-09-11T01:10:39.278Z,18.04
2023-09-11T01:15:54.303Z,17.98
2023-09-11T01:21:22.777Z,17.91
2023-09-11T01:26:27.674Z,17.91
2023-09-11T01:31:32.975Z,17.87
2023-09-11T01:36:35.212Z,17.81
2023-09-11T01:41:40.886Z,17.78
2023-09-11T01:46:45.450Z,17.65
2023-09-11T01:51:48.567Z,17.69
2023-09-11T01:56:51.264Z,17.58
2023-09-11T02:01:53.518Z,17.63
2023-09-11T02:06:56.013Z,17.56
2023-09-11T02:11:58.238Z,17.53
2023-09-11T02:17:04.133Z,17.42
2023-09-11T02:22:06.453Z,17.44
2023-09-11T02:27:08.531Z,17.44
2023-09-11T02:32:10.619Z,17.42
2023-09-11T02:37:13.130Z,17.37
2023-09-11T02:42:15.320Z,17.33
2023-09-11T02:47:17.406Z,17.26
2023-09-11T02:52:19.928Z,17.19
2023-09-11T02:57:22.234Z,17.14
2023-09-11T03:02:24.343Z,17.10
2023-09-11T03:07:26.580Z,17.26
2023-09-11T03:12:29.263Z,17.11
2023-09-11T03:17:31.875Z,17.03
2023-09-11T03:22:34.156Z,16.94
2023-09-11T03:27:36.279Z,17.04
2023-09-11T03:32:38.538Z,17.01
2023-09-11T03:37:40.736Z,16.83
2023-09-11T03:42:42.846Z,16.86
2023-09-11T03:47:45.098Z,16.80
2023-09-11T03:52:47.327Z,16.82
2023-09-11T03:57:49.531Z,16.76
2023-09-11T04:02:51.759Z,16.73
2023-09-11T04:07:53.987Z,16.56
2023-09-11T04:12:56.131Z,16.64
2023-09-11T04:17:58.693Z,16.62
2023-09-11T04:23:04.371Z,16.62
2023-09-11T04:28:06.645Z,16.45
2023-09-11T04:33:08.879Z,16.55
2023-09-11T04:38:11.353Z,16.64
2023-09-11T04:43:13.450Z,16.69
2023-09-11T04:48:15.733Z,16.66
2023-09-11T04:53:17.976Z,16.79
2023-09-11T04:58:20.311Z,16.86
2023-09-11T05:03:22.574Z,16.83
2023-09-11T05:08:25.041Z,16.88
2023-09-11T05:13:27.176Z,16.86
2023-09-11T05:18:29.351Z,16.92
2023-09-11T05:23:31.475Z,16.97
2023-09-11T05:28:33.769Z,17.08
2023-09-11T05:33:35.995Z,17.24
2023-09-11T05:38:38.284Z,17.30
2023-09-11T05:43:41.656Z,17.41
2023-09-11T05:48:44.151Z,17.45
2023-09-11T05:53:46.596Z,17.62
2023-09-11T05:58:49.004Z,17.73
2023-09-11T06:03:51.597Z,17.81
2023-09-11T06:08:53.818Z,18.00
2023-09-11T06:13:55.929Z,18.13
2023-09-11T06:19:01.422Z,18.27
2023-09-11T06:24:05.854Z,18.31
2023-09-11T06:29:08.016Z,18.51
2023-09-11T06:34:10.145Z,18.64
2023-09-11T06:39:12.307Z,18.86
2023-09-11T06:44:14.477Z,19.04
2023-09-11T06:49:16.602Z,19.19
2023-09-11T06:54:18.732Z,19.30
2023-09-11T06:59:21.140Z,19.51
2023-09-11T07:04:23.410Z,19.74
2023-09-11T07:09:25.630Z,19.93
2023-09-11T07:14:27.946Z,20.10
2023-09-11T07:19:30.087Z,20.23
2023-09-11T07:24:32.308Z,20.45
2023-09-11T07:29:34.516Z,20.66
2023-09-11T07:34:36.634Z,20.84
2023-09-11T07:39:38.697Z,21.08
2023-09-11T07:44:40.841Z,21.23
2023-09-11T07:49:43.047Z,21.52
2023-09-11T07:54:45.354Z,21.75
2023-09-11T07:59:47.450Z,21.96
2023-09-11T08:04:49.616Z,22.24
2023-09-11T08:09:53.466Z,22.48
2023-09-11T08:14:56.880Z,22.59
2023-09-11T08:20:05.140Z,22.82
2023-09-11T08:25:09.014Z,23.13
2023-09-11T08:30:11.471Z,23.30
2023-09-11T08:35:13.684Z,23.62
2023-09-11T08:40:16.425Z,23.89
2023-09-11T08:45:18.539Z,24.20
2023-09-11T08:50:23.451Z,24.50
2023-09-11T08:55:28.886Z,24.83
2023-09-11T09:00:33.330Z,25.11
2023-09-11T09:05:36.723Z,25.36
2023-09-11T09:10:41.008Z,25.64
2023-09-11T09:15:45.958Z,26.00
2023-09-11T09:20:48.330Z,26.23
2023-09-11T09:26:04.056Z,26.55
2023-09-11T09:31:06.761Z,26.89
2023-09-11T09:36:09.004Z,27.19
2023-09-11T09:41:11.954Z,27.47
2023-09-11T09:46:22.323Z,28.05
2023-09-11T09:51:25.957Z,28.50
2023-09-11T09:56:28.373Z,28.96
2023-09-11T10:01:30.566Z,29.10
2023-09-11T10:06:33.488Z,29.71
2023-09-11T10:11:36.830Z,30.21
2023-09-11T10:16:39.254Z,30.87
2023-09-11T10:21:41.439Z,31.01
2023-09-11T10:26:57.890Z,31.46
2023-09-11T10:32:06.748Z,31.91
2023-09-11T10:37:08.925Z,32.35
2023-09-11T10:42:11.880Z,32.02
2023-09-11T10:47:16.866Z,32.12
2023-09-11T10:52:19.454Z,32.12
2023-09-11T10:57:21.618Z,32.40
2023-09-11T11:02:23.884Z,31.97
2023-09-11T11:07:26.195Z,32.29
2023-09-11T11:12:33.708Z,32.39
2023-09-11T11:17:41.621Z,32.10
2023-09-11T11:22:43.799Z,32.26
2023-09-11T11:27:46.176Z,32.29
2023-09-11T11:32:49.738Z,32.24
2023-09-11T11:37:54.191Z,32.11
2023-09-11T11:42:56.657Z,32.35
2023-09-11T11:47:59.197Z,32.46
2023-09-11T11:53:01.401Z,32.25
2023-09-11T11:58:05.634Z,32.19
2023-09-11T12:03:09.555Z,32.62
2023-09-11T12:08:13.472Z,32.81
2023-09-11T12:13:34.678Z,32.54
2023-09-11T12:18:43.086Z,32.30
2023-09-11T12:23:45.506Z,32.76
2023-09-11T12:28:48.993Z,32.80
2023-09-11T12:33:55.521Z,32.98
2023-09-11T12:38:59.565Z,32.87
2023-09-11T12:44:03.087Z,33.30
2023-09-11T12:49:05.974Z,33.96
2023-09-11T12:54:09.197Z,33.67
2023-09-11T12:59:13.958Z,33.64
2023-09-11T13:04:16.059Z,34.05
2023-09-11T13:09:22.397Z,34.26
2023-09-11T13:14:24.577Z,34.52
2023-09-11T13:19:26.724Z,34.54
2023-09-11T13:24:28.941Z,34.10
2023-09-11T13:29:31.102Z,35.01
2023-09-11T13:34:33.385Z,35.70
2023-09-11T13:39:35.508Z,36.46
2023-09-11T13:44:37.825Z,36.32
2023-09-11T13:49:40.081Z,37.22
2023-09-11T13:54:45.595Z,36.89
2023-09-11T13:59:47.840Z,36.74
2023-09-11T14:04:50.067Z,37.29
2023-09-11T14:09:52.877Z,37.97
2023-09-11T14:14:55.121Z,37.92
2023-09-11T14:19:57.418Z,38.41
2023-09-11T14:25:00.732Z,37.91
2023-09-11T14:30:03.538Z,38.32
2023-09-11T14:35:06.247Z,38.47
2023-09-11T14:40:09.333Z,40.98
2023-09-11T14:45:12.131Z,45.51
2023-09-11T14:50:15.178Z,46.23
2023-09-11T14:55:17.299Z,41.66
2023-09-11T15:00:19.727Z,39.26
2023-09-11T15:05:22.232Z,37.07
2023-09-11T15:10:24.450Z,36.33
2023-09-11T15:15:26.624Z,35.17
2023-09-11T15:20:29.189Z,34.11
2023-09-11T15:25:31.399Z,33.71
2023-09-11T15:30:38.599Z,34.21
2023-09-11T15:36:03.038Z,34.56
2023-09-11T15:41:06.322Z,33.04
2023-09-11T15:46:11.733Z,32.61
2023-09-11T15:51:13.953Z,32.28
2023-09-11T15:56:16.233Z,31.98
2023-09-11T16:01:19.150Z,31.66
2023-09-11T16:06:21.328Z,31.36
2023-09-11T16:11:23.550Z,31.06
2023-09-11T16:16:25.810Z,30.92
2023-09-11T16:21:39.588Z,30.75
2023-09-11T16:26:43.332Z,30.57
2023-09-11T16:31:46.030Z,30.28
2023-09-11T16:36:48.235Z,30.04
2023-09-11T16:41:50.392Z,29.76
2023-09-11T16:46:52.508Z,29.50
2023-09-11T16:51:54.743Z,29.24
2023-09-11T16:56:56.930Z,28.88
2023-09-11T17:02:01.075Z,28.68
2023-09-11T17:07:03.349Z,28.41
2023-09-11T17:12:05.903Z,28.15
2023-09-11T17:17:08.094Z,27.99
2023-09-11T17:22:10.366Z,27.80
2023-09-11T17:27:12.691Z,27.64
2023-09-11T17:32:14.867Z,27.38
2023-09-11T17:37:17.512Z,27.19
2023-09-11T17:42:19.944Z,27.00
2023-09-11T17:47:22.126Z,26.76
2023-09-11T17:52:24.356Z,26.65
2023-09-11T17:57:26.591Z,26.38
2023-09-11T18:02:28.834Z,26.31
2023-09-11T18:07:30.940Z,26.15
2023-09-11T18:12:33.806Z,26.00
2023-09-11T18:17:35.967Z,25.79
2023-09-11T18:22:38.163Z,25.64
2023-09-11T18:27:40.375Z,25.51
2023-09-11T18:32:42.530Z,25.34
2023-09-11T18:37:44.715Z,25.18
2023-09-11T18:42:46.885Z,25.00
2023-09-11T18:47:50.047Z,24.89
2023-09-11T18:52:54.535Z,24.70
2023-09-11T18:57:56.638Z,24.56
2023-09-11T19:02:58.988Z,24.61
2023-09-11T19:08:01.230Z,24.50
2023-09-11T19:13:03.753Z,24.38
2023-09-11T19:18:06.259Z,24.29
2023-09-11T19:23:08.503Z,24.16
2023-09-11T19:28:10.645Z,24.08
2023-09-11T19:33:13.060Z,23.95
2023-09-11T19:38:15.302Z,23.81
2023-09-11T19:43:17.492Z,23.75
2023-09-11T19:48:19.785Z,23.63
2023-09-11T19:53:21.992Z,23.50
2023-09-11T19:58:24.138Z,23.46
2023-09-11T20:03:26.545Z,23.31
2023-09-11T20:08:28.759Z,23.21
2023-09-11T20:13:31.237Z,23.06
2023-09-11T20:18:33.503Z,23.06
2023-09-11T20:23:35.735Z,22.90
2023-09-11T20:28:37.829Z,22.85
2023-09-11T20:33:44.342Z,22.75
2023-09-11T20:38:49.521Z,22.55
2023-09-11T20:43:51.681Z,22.52
2023-09-11T20:48:53.873Z,22.40
2023-09-11T20:53:56.078Z,22.28
2023-09-11T20:58:58.195Z,22.26
2023-09-11T21:04:00.718Z,22.15
2023-09-11T21:09:02.963Z,22.06
2023-09-11T21:14:05.191Z,21.89
2023-09-11T21:19:07.357Z,21.87
2023-09-11T21:29:11.796Z,21.55
2023-09-11T21:34:13.957Z,21.57
2023-09-11T21:39:16.265Z,21.59
2023-09-11T21:44:18.453Z,21.51
2023-09-11T21:49:20.642Z,21.30
2023-09-11T21:54:24.769Z,21.22
2023-09-11T21:59:29.384Z,21.05
2023-09-11T22:04:32.485Z,21.04
2023-09-11T22:09:34.614Z,21.03
2023-09-11T22:14:36.722Z,21.03
2023-09-11T22:19:38.845Z,20.89
2023-09-11T22:24:41.027Z,20.88
2023-09-11T22:29:43.179Z,20.76
2023-09-11T22:34:45.763Z,20.76
2023-09-11T22:39:48.135Z,20.73
2023-09-11T22:44:50.945Z,20.74
2023-09-11T22:49:53.107Z,20.66
2023-09-11T22:54:55.228Z,20.61
2023-09-11T23:00:00.371Z,20.44
2023-09-11T23:05:03.556Z,20.34
2023-09-11T23:10:06.404Z,20.34
2023-09-11T23:15:08.824Z,20.24
2023-09-11T23:20:14.411Z,20.24
2023-09-11T23:25:16.741Z,20.22
2023-09-11T23:30:19.007Z,20.15
2023-09-11T23:35:21.279Z,20.18
2023-09-11T23:40:23.368Z,20.11
2023-09-11T23:45:25.720Z,20.03
2023-09-11T23:50:27.878Z,20.02
2023-09-11T23:55:30.066Z,19.86
